Time;durP1;ratioP1;P1;durP2;ratioP2;P2;SDS_P1;SDS_P2;PMS_P1;PMS_P2;Temp;Humidity;BMP_temperature;BMP_pressure;BME280_temperature;BME280_humidity;BME280_pressure;Samples;Min_cycle;Max_cycle;Signal;HPM_P1;HPM_P2
2024/01/26 00:00:35;;;;;;;;;7.00;5.00;;;;;-144.24;100.00;70561.13;5062389;28;70612;-72
2024/01/26 00:03:00;;;;;;;;;7.67;6.33;;;;;-144.24;100.00;70407.97;5059027;28;45398;-71
2024/01/26 00:05:26;;;;;;;;;9.00;7.00;;;;;-144.24;100.00;70528.88;5060349;28;57711;-71
2024/01/26 00:07:51;;;;;;;;;9.33;9.33;;;;;-144.24;100.00;70430.13;5059088;28;46927;-71
2024/01/26 00:10:16;;;;;;;;;6.00;6.00;;;;;-144.24;100.00;70488.59;5040171;28;71088;-70
2024/01/26 00:12:42;;;;;;;;;7.00;7.00;;;;;-144.24;100.00;70186.28;5059342;28;45485;-72
2024/01/26 00:15:08;;;;;;;;;1.00;0.00;;;;;-144.24;100.00;70492.63;5058431;28;45626;-71
2024/01/26 00:17:33;;;;;;;;;11.33;8.00;;;;;-144.24;100.00;70407.97;5058619;28;47312;-72
2024/01/26 00:19:59;;;;;;;;;6.00;6.00;;;;;-144.24;100.00;70643.75;5059036;28;45341;-74
2024/01/26 00:22:24;;;;;;;;;10.33;7.33;;;;;-144.24;100.00;70559.13;5066885;28;63584;-73
2024/01/26 00:24:50;;;;;;;;;6.67;6.33;;;;;-144.24;100.00;70643.75;5058113;28;67184;-74
2024/01/26 00:27:15;;;;;;;;;7.67;6.33;;;;;-144.24;100.00;70536.94;5058952;28;45358;-71
2024/01/26 00:29:40;;;;;;;;;11.67;6.00;;;;;-144.24;100.00;70716.31;5058914;28;45253;-72
2024/01/26 00:32:06;;;;;;;;;10.33;8.67;;;;;-144.24;100.00;70661.91;5063607;28;62185;-72
2024/01/26 00:34:31;;;;;;;;;7.67;7.67;;;;;-144.24;100.00;70669.97;5058956;28;45547;-70
2024/01/26 00:36:59;;;;;;;;;13.00;8.00;;;;;-144.24;100.00;70543.00;5062389;28;62402;-72
2024/01/26 00:39:25;;;;;;;;;10.67;10.67;;;;;-144.24;100.00;70420.06;5058527;28;45474;-74
2024/01/26 00:41:50;;;;;;;;;9.33;7.00;;;;;-144.24;100.00;70671.97;5061854;28;45482;-74
2024/01/26 00:44:16;;;;;;;;;8.00;6.00;;;;;-144.24;100.00;70736.47;5062489;28;63439;-73
2024/01/26 00:46:41;;;;;;;;;10.33;7.00;;;;;-144.24;100.00;70674.00;5058284;28;46415;-72
2024/01/26 00:49:07;;;;;;;;;8.00;6.00;;;;;-144.24;100.00;70436.19;5056319;28;68164;-72
2024/01/26 00:51:33;;;;;;;;;12.33;8.33;;;;;-144.24;100.00;70645.78;5040569;28;45513;-71
2024/01/26 00:53:58;;;;;;;;;7.67;7.00;;;;;-144.24;100.00;70637.72;5058404;28;45441;-72
2024/01/26 00:56:24;;;;;;;;;7.67;7.67;;;;;-144.24;100.00;70669.97;5058584;28;69464;-72
2024/01/26 00:58:49;;;;;;;;;7.67;6.33;;;;;-144.24;100.00;70551.06;5058400;28;45498;-72
2024/01/26 01:01:14;;;;;;;;;7.67;7.67;;;;;-144.24;100.00;70508.72;5058207;28;45550;-75
2024/01/26 01:03:40;;;;;;;;;9.33;9.33;;;;;-144.24;100.00;70597.41;5058182;28;45379;-71
2024/01/26 01:06:05;;;;;;;;;8.00;8.00;;;;;-144.24;100.00;70585.31;5056764;28;47489;-75
2024/01/26 01:08:31;;;;;;;;;8.33;8.33;;;;;-144.24;100.00;70488.59;5058819;28;45376;-74
2024/01/26 01:10:56;;;;;;;;;6.67;6.67;;;;;-144.24;100.00;70520.81;5060084;28;67068;-74
2024/01/26 01:13:22;;;;;;;;;7.33;7.00;;;;;-144.24;100.00;70480.53;5060075;28;45130;-74
2024/01/26 01:15:48;;;;;;;;;9.00;7.67;;;;;-144.24;100.00;70395.88;5057383;28;45316;-72
2024/01/26 01:18:13;;;;;;;;;10.67;8.33;;;;;-144.24;100.00;70103.66;5039961;28;45320;-73
2024/01/26 01:20:38;;;;;;;;;6.33;6.33;;;;;-144.24;100.00;70053.28;5058904;28;45485;-71
2024/01/26 01:23:04;;;;;;;;;8.33;8.33;;;;;-144.24;100.00;69819.56;5051562;28;67188;-71
2024/01/26 01:25:30;;;;;;;;;7.33;7.33;;;;;-144.24;100.00;69978.75;5059958;28;45977;-71
2024/01/26 01:27:55;;;;;;;;;14.67;10.33;;;;;-144.24;100.00;69753.06;5057629;28;48931;-74
2024/01/26 01:30:20;;;;;;;;;9.67;7.00;;;;;-144.24;100.00;69624.09;5057181;28;67552;-73
2024/01/26 01:32:46;;;;;;;;;9.33;9.33;;;;;-144.24;100.00;69904.19;5057889;28;45557;-74
2024/01/26 01:35:11;;;;;;;;;11.00;10.00;;;;;-144.24;100.00;69793.34;5060705;28;71639;-74
2024/01/26 01:37:36;;;;;;;;;10.67;9.67;;;;;-144.24;100.00;69875.97;5057107;28;52555;-71
2024/01/26 01:40:02;;;;;;;;;6.67;6.67;;;;;-144.24;100.00;69837.69;5056728;28;67485;-74
2024/01/26 01:42:27;;;;;;;;;12.00;12.00;;;;;-144.24;100.00;69797.38;5054469;28;45539;-71
2024/01/26 01:44:53;;;;;;;;;11.00;9.00;;;;;-144.24;100.00;69595.91;5053352;28;72502;-74
2024/01/26 01:47:18;;;;;;;;;15.67;11.00;;;;;-144.24;100.00;69605.97;5038918;28;71204;-76
2024/01/26 01:49:44;;;;;;;;;12.00;8.33;;;;;-144.24;100.00;69509.25;5062976;28;67085;-71
2024/01/26 01:52:16;;;;;;;;;11.00;8.00;;;;;-144.24;100.00;69640.22;5058838;28;45860;-71
2024/01/26 01:54:41;;;;;;;;;12.33;8.33;;;;;-144.24;100.00;69718.81;5056692;28;47543;-75
2024/01/26 01:57:06;;;;;;;;;10.67;10.67;;;;;-144.24;100.00;69442.75;5056273;28;71667;-71
2024/01/26 01:59:33;;;;;;;;;9.00;9.00;;;;;-144.24;100.00;69456.88;5059208;28;45537;-72
2024/01/26 02:01:59;;;;;;;;;7.00;7.00;;;;;-144.24;100.00;69515.31;5057415;28;45230;-74
2024/01/26 02:04:25;;;;;;;;;11.33;9.00;;;;;-144.24;100.00;69321.88;5056572;28;45666;-72
2024/01/26 02:06:59;;;;;;;;;12.00;9.67;;;;;-144.24;100.00;69434.72;5057183;28;45367;-73
2024/01/26 02:09:25;;;;;;;;;9.33;7.00;;;;;-144.24;100.00;69473.00;5056667;28;45233;-74
2024/01/26 02:11:50;;;;;;;;;11.67;10.33;;;;;-144.24;100.00;69299.72;5057027;28;45281;-71
2024/01/26 02:14:16;;;;;;;;;10.33;7.67;;;;;-144.24;100.00;69420.59;5060786;28;46618;-72
2024/01/26 02:17:00;;;;;;;;;9.00;7.00;;;;;-144.24;100.00;69235.25;5041422;28;52651;-71
2024/01/26 02:19:27;;;;;;;;;12.33;7.33;;;;;-144.24;100.00;69174.81;5056756;28;45401;-72
2024/01/26 02:21:52;;;;;;;;;10.00;8.00;;;;;-144.24;100.00;69245.31;5063574;28;45280;-71
2024/01/26 02:24:18;;;;;;;;;9.00;9.00;;;;;-144.24;100.00;69249.34;5056726;28;45842;-75
2024/01/26 02:26:43;;;;;;;;;6.67;6.00;;;;;-144.24;100.00;69080.13;5056107;28;70966;-71
2024/01/26 02:29:09;;;;;;;;;8.00;8.00;;;;;-144.24;100.00;69021.69;5056702;28;45359;-73
2024/01/26 02:31:34;;;;;;;;;8.33;5.67;;;;;-144.24;100.00;69031.78;5059807;28;61413;-72
2024/01/26 02:34:00;;;;;;;;;11.33;11.33;;;;;-144.24;100.00;69062.00;5057753;28;45611;-73
2024/01/26 02:36:29;;;;;;;;;10.33;8.00;;;;;-144.24;100.00;69023.72;5055629;28;73006;-73
2024/01/26 02:38:54;;;;;;;;;7.67;6.00;;;;;-144.24;100.00;68967.31;5059381;28;45448;-73
2024/01/26 02:41:20;;;;;;;;;6.67;6.67;;;;;-144.24;100.00;69023.72;5057118;28;45445;-73
2024/01/26 02:43:45;;;;;;;;;6.67;6.67;;;;;-144.24;100.00;68828.31;5058007;28;46421;-72
2024/01/26 02:46:11;;;;;;;;;7.00;7.00;;;;;-144.24;100.00;69023.72;5058442;28;45395;-72
2024/01/26 02:48:37;;;;;;;;;7.67;6.00;;;;;-144.24;100.00;68933.06;5058772;28;45311;-72
2024/01/26 02:51:03;;;;;;;;;9.00;6.00;;;;;-144.24;100.00;68975.38;5060665;28;45288;-74
2024/01/26 02:53:28;;;;;;;;;9.00;7.67;;;;;-144.24;100.00;69178.84;5057010;28;46448;-72
2024/01/26 02:55:53;;;;;;;;;9.00;7.00;;;;;-144.24;100.00;69027.75;5055512;28;70967;-73
2024/01/26 02:58:18;;;;;;;;;8.33;6.67;;;;;-144.24;100.00;69112.34;5055221;28;69866;-75
2024/01/26 03:00:44;;;;;;;;;11.00;8.67;;;;;-144.24;100.00;68991.47;5055420;28;66442;-74
2024/01/26 03:03:09;;;;;;;;;9.00;7.00;;;;;-144.24;100.00;69136.53;5055900;28;46461;-71
2024/01/26 03:05:35;;;;;;;;;15.67;8.67;;;;;-144.24;100.00;69136.53;5054913;28;66916;-71
2024/01/26 03:08:00;;;;;;;;;9.00;7.00;;;;;-144.24;100.00;69007.59;5064038;28;45486;-71
2024/01/26 03:10:25;;;;;;;;;9.00;7.00;;;;;-144.24;100.00;69003.56;5055430;28;59872;-73
2024/01/26 03:12:51;;;;;;;;;9.67;9.67;;;;;-144.24;100.00;69094.22;5048712;28;45642;-72
2024/01/26 03:15:16;;;;;;;;;9.33;8.00;;;;;-144.24;100.00;69269.50;5055312;28;69816;-71
2024/01/26 03:17:41;;;;;;;;;6.00;6.00;;;;;-144.24;100.00;69182.88;5056000;28;45551;-72
2024/01/26 03:20:10;;;;;;;;;7.67;7.00;;;;;-144.24;100.00;69327.94;5052745;28;51681;-72
2024/01/26 03:22:35;;;;;;;;;5.00;5.00;;;;;-144.24;100.00;69172.78;5056275;28;47608;-74
2024/01/26 03:25:01;;;;;;;;;7.00;7.00;;;;;-144.24;100.00;69170.78;5055984;28;45441;-73
2024/01/26 03:27:27;;;;;;;;;6.33;6.33;;;;;-144.24;100.00;69267.47;5056093;28;45356;-71
2024/01/26 03:29:52;;;;;;;;;8.33;6.67;;;;;-144.24;100.00;69225.19;5056233;28;45446;-73
2024/01/26 03:32:18;;;;;;;;;4.67;4.67;;;;;-144.24;100.00;69456.88;5055857;28;63724;-72
2024/01/26 03:34:44;;;;;;;;;8.33;6.00;;;;;-144.24;100.00;69666.41;5055514;28;64267;-73
2024/01/26 03:37:09;;;;;;;;;11.33;9.00;;;;;-144.24;100.00;69648.28;5063693;28;45466;-74
2024/01/26 03:39:34;;;;;;;;;12.00;8.00;;;;;-144.24;100.00;69539.47;5054633;28;51183;-73
2024/01/26 03:42:00;;;;;;;;;7.67;7.00;;;;;-144.24;100.00;69468.97;5055962;28;45437;-73
2024/01/26 03:44:25;;;;;;;;;12.33;9.00;;;;;-144.24;100.00;69720.81;5055051;28;71142;-71
2024/01/26 03:46:50;;;;;;;;;5.00;5.00;;;;;-144.24;100.00;69724.84;5054802;28;68956;-76
2024/01/26 03:49:16;;;;;;;;;13.33;9.00;;;;;-144.24;100.00;69801.41;5055376;28;45353;-72
2024/01/26 03:51:41;;;;;;;;;6.33;6.33;;;;;-144.24;100.00;69853.81;5055479;28;45522;-72
2024/01/26 03:54:06;;;;;;;;;7.67;7.67;;;;;-144.24;100.00;70127.84;5059451;28;73357;-73
2024/01/26 03:56:31;;;;;;;;;8.00;8.00;;;;;-144.24;100.00;70335.41;5055238;28;64542;-72
2024/01/26 03:58:57;;;;;;;;;5.67;5.00;;;;;-144.24;100.00;70587.34;5060353;28;64816;-72
2024/01/26 04:01:22;;;;;;;;;9.00;6.00;;;;;-144.24;100.00;70595.41;5054316;28;71978;-73
2024/01/26 04:03:48;;;;;;;;;8.33;8.33;;;;;-144.24;100.00;70738.50;5064214;28;63813;-75
2024/01/26 04:06:13;;;;;;;;;10.67;7.67;;;;;-144.24;100.00;70869.50;5056909;28;52113;-71
2024/01/26 04:08:39;;;;;;;;;12.33;8.00;;;;;-144.24;100.00;70684.06;5055922;28;45205;-74
2024/01/26 04:11:04;;;;;;;;;8.67;7.00;;;;;-144.24;100.00;70744.53;5053475;28;67336;-75
2024/01/26 04:13:29;;;;;;;;;10.00;7.33;;;;;-144.24;100.00;70692.13;5047103;28;45246;-71
2024/01/26 04:15:55;;;;;;;;;6.00;6.00;;;;;-144.24;100.00;70794.91;5054781;28;54257;-73
2024/01/26 04:18:20;;;;;;;;;7.33;6.00;;;;;-144.24;100.00;70962.22;5055370;28;59363;-71
2024/01/26 04:20:48;;;;;;;;;9.00;6.00;;;;;-144.24;100.00;70934.00;5054506;28;65076;-71
2024/01/26 04:23:14;;;;;;;;;11.67;7.67;;;;;-144.24;100.00;71085.16;5057373;28;45310;-72
2024/01/26 04:25:39;;;;;;;;;11.00;8.00;;;;;-144.24;100.00;71181.91;5041223;28;45438;-71
2024/01/26 04:28:05;;;;;;;;;8.33;7.33;;;;;-144.24;100.00;71185.94;5058445;28;61608;-72
2024/01/26 04:30:30;;;;;;;;;9.00;7.00;;;;;-144.24;100.00;71133.53;5060102;28;45544;-71
2024/01/26 04:32:56;;;;;;;;;7.33;7.33;;;;;-144.24;100.00;71236.34;5059125;28;45446;-72
2024/01/26 04:35:21;;;;;;;;;6.00;4.00;;;;;-144.24;100.00;71498.38;5060229;28;45411;-74
2024/01/26 04:37:46;;;;;;;;;10.00;7.33;;;;;-144.24;100.00;71206.09;5064076;28;64227;-74
2024/01/26 04:40:12;;;;;;;;;7.00;6.00;;;;;-144.24;100.00;71181.91;5057750;28;70557;-74
2024/01/26 04:42:38;;;;;;;;;9.00;6.67;;;;;-144.24;100.00;71206.09;5062205;28;45335;-72
2024/01/26 04:45:03;;;;;;;;;8.33;7.00;;;;;-144.24;100.00;71159.75;5058565;28;45351;-73
2024/01/26 04:47:29;;;;;;;;;8.00;6.67;;;;;-144.24;100.00;71240.38;5058907;28;45546;-73
2024/01/26 04:49:54;;;;;;;;;9.33;7.33;;;;;-144.24;100.00;71413.72;5058792;28;48504;-71
2024/01/26 04:52:19;;;;;;;;;8.00;7.00;;;;;-144.24;100.00;71496.38;5057319;28;67035;-70
2024/01/26 04:54:46;;;;;;;;;4.00;3.00;;;;;-144.24;100.00;71397.59;5057429;28;64043;-75
2024/01/26 04:57:12;;;;;;;;;6.67;6.00;;;;;-144.24;100.00;71435.91;5057986;28;45601;-74
2024/01/26 04:59:37;;;;;;;;;12.00;8.00;;;;;-144.24;100.00;71450.00;5060691;28;46459;-73
2024/01/26 05:02:03;;;;;;;;;7.00;7.00;;;;;-144.24;100.00;71564.91;5059247;28;45431;-71
2024/01/26 05:04:28;;;;;;;;;8.00;6.33;;;;;-144.24;100.00;71520.56;5058423;28;45603;-72
2024/01/26 05:06:55;;;;;;;;;8.67;7.00;;;;;-144.24;100.00;71476.22;5061170;28;59308;-71
2024/01/26 05:09:20;;;;;;;;;11.00;5.00;;;;;-144.24;100.00;71558.84;5055962;28;46387;-71
2024/01/26 05:11:46;;;;;;;;;10.67;9.00;;;;;-144.24;100.00;71403.63;5050703;28;73404;-74
2024/01/26 05:14:12;;;;;;;;;10.67;8.33;;;;;-144.24;100.00;71683.84;5059117;28;60517;-72
2024/01/26 05:16:37;;;;;;;;;13.00;7.00;;;;;-144.24;100.00;71806.81;5057918;28;45376;-74
2024/01/26 05:19:03;;;;;;;;;7.00;6.00;;;;;-144.24;100.00;71562.88;5059679;28;73207;-73
2024/01/26 05:21:28;;;;;;;;;9.67;6.67;;;;;-144.24;100.00;71704.00;5057914;28;45450;-71
2024/01/26 05:23:53;;;;;;;;;10.67;7.00;;;;;-144.24;100.00;71710.06;5058033;28;45419;-73
2024/01/26 05:26:19;;;;;;;;;8.67;8.00;;;;;-144.24;100.00;71718.13;5054471;28;68043;-72
2024/01/26 05:28:44;;;;;;;;;9.00;7.00;;;;;-144.24;100.00;71730.22;5056769;28;69221;-71
2024/01/26 05:31:10;;;;;;;;;7.00;6.00;;;;;-144.24;100.00;71845.13;5061961;28;45311;-72
2024/01/26 05:33:35;;;;;;;;;12.00;7.67;;;;;-144.24;100.00;71901.56;5056592;28;62750;-73
2024/01/26 05:36:00;;;;;;;;;13.00;8.00;;;;;-144.24;100.00;71998.34;5056748;28;67873;-71
2024/01/26 05:38:26;;;;;;;;;11.33;7.33;;;;;-144.24;100.00;72002.38;5057338;28;55037;-74
2024/01/26 05:40:51;;;;;;;;;7.33;5.67;;;;;-144.24;100.00;72028.59;5059841;28;45469;-74
2024/01/26 05:43:16;;;;;;;;;8.67;8.00;;;;;-144.24;100.00;72119.31;5056978;28;64673;-72
2024/01/26 05:45:42;;;;;;;;;7.00;7.00;;;;;-144.24;100.00;71863.28;5057073;28;68145;-72
2024/01/26 05:48:07;;;;;;;;;7.67;6.67;;;;;-144.24;100.00;72022.53;5039015;28;50064;-73
2024/01/26 05:50:33;;;;;;;;;5.00;5.00;;;;;-144.24;100.00;72177.78;5039493;28;45257;-73
2024/01/26 05:52:58;;;;;;;;;8.00;6.67;;;;;-144.24;100.00;72268.50;5057358;28;45193;-71
2024/01/26 05:55:23;;;;;;;;;7.33;6.33;;;;;-144.24;100.00;72185.84;5061965;28;45555;-73
2024/01/26 05:57:49;;;;;;;;;7.00;7.00;;;;;-144.24;100.00;72173.75;5056132;28;69491;-71
2024/01/26 06:00:14;;;;;;;;;9.00;6.67;;;;;-144.24;100.00;72399.56;5056535;28;45795;-71
2024/01/26 06:02:40;;;;;;;;;10.33;7.67;;;;;-144.24;100.00;72415.69;5055018;28;45409;-71
2024/01/26 06:05:05;;;;;;;;;9.67;7.33;;;;;-144.24;100.00;72343.09;5056449;28;67308;-71
2024/01/26 06:07:30;;;;;;;;;8.00;6.33;;;;;-144.24;100.00;72212.06;5056981;28;46604;-72
2024/01/26 06:09:56;;;;;;;;;8.00;5.33;;;;;-144.24;100.00;72363.28;5055744;28;69503;-71
2024/01/26 06:12:21;;;;;;;;;13.67;7.00;;;;;-144.24;100.00;72564.91;5064295;28;65045;-71
2024/01/26 06:14:46;;;;;;;;;8.00;6.00;;;;;-144.24;100.00;72268.50;5057686;28;45435;-75
2024/01/26 06:17:12;;;;;;;;;7.67;6.00;;;;;-144.24;100.00;72127.38;5056072;28;73009;-74
2024/01/26 06:19:38;;;;;;;;;8.00;7.33;;;;;-144.24;100.00;72286.66;5054865;28;70905;-72
2024/01/26 06:22:03;;;;;;;;;10.33;8.33;;;;;-144.24;100.00;72276.56;5058417;28;45387;-71
2024/01/26 06:24:28;;;;;;;;;15.33;7.67;;;;;-144.24;100.00;72157.63;5062812;28;57496;-71
2024/01/26 06:26:54;;;;;;;;;7.67;7.67;;;;;-144.24;100.00;72391.50;5055929;28;56144;-72
2024/01/26 06:29:19;;;;;;;;;7.67;7.00;;;;;-144.24;100.00;72399.56;5046883;28;45442;-73
2024/01/26 06:31:44;;;;;;;;;13.00;7.00;;;;;-144.24;100.00;72339.06;5059276;28;45681;-74
2024/01/26 06:34:10;;;;;;;;;7.00;5.67;;;;;-144.24;100.00;72335.03;5054971;28;64690;-72
2024/01/26 06:36:35;;;;;;;;;6.67;6.67;;;;;-144.24;100.00;72266.50;5055508;28;69027;-71
2024/01/26 06:39:00;;;;;;;;;5.67;5.00;;;;;-144.24;100.00;72306.81;5054396;28;72764;-75
2024/01/26 06:41:26;;;;;;;;;5.33;5.00;;;;;-144.24;100.00;72318.91;5056535;28;45407;-75
2024/01/26 06:43:51;;;;;;;;;9.00;6.00;;;;;-144.24;100.00;72161.66;5056735;28;45466;-72
2024/01/26 06:46:24;;;;;;;;;11.67;6.00;;;;;-144.24;100.00;72318.91;5056320;28;46197;-73
2024/01/26 06:48:52;;;;;;;;;10.33;7.33;;;;;-144.24;100.00;72185.84;5053505;28;45304;-71
2024/01/26 06:51:17;;;;;;;;;5.33;5.00;;;;;-144.24;100.00;72363.28;5056060;28;49484;-71
2024/01/26 06:53:43;;;;;;;;;8.33;6.00;;;;;-144.24;100.00;72322.94;5055798;28;51336;-75
2024/01/26 06:56:08;;;;;;;;;7.00;7.00;;;;;-144.24;100.00;72022.53;5055141;28;70958;-72
2024/01/26 06:58:33;;;;;;;;;9.67;7.67;;;;;-144.24;100.00;72099.16;5057535;28;60298;-73
2024/01/26 07:01:00;;;;;;;;;6.00;5.33;;;;;-144.24;100.00;72456.03;5055074;28;63796;-73
2024/01/26 07:03:26;;;;;;;;;11.67;8.00;;;;;-144.24;100.00;72445.94;5040893;28;45476;-74
2024/01/26 07:05:51;;;;;;;;;6.33;5.00;;;;;-144.24;100.00;72387.47;5044401;28;46313;-71
2024/01/26 07:08:16;;;;;;;;;9.33;6.00;;;;;-144.24;100.00;72371.34;5040746;28;60081;-71
2024/01/26 07:10:42;;;;;;;;;9.33;6.33;;;;;-144.24;100.00;72393.50;5046700;28;69623;-73
2024/01/26 07:13:07;;;;;;;;;5.00;4.33;;;;;-144.24;100.00;72210.03;5040246;28;45376;-71
2024/01/26 07:15:33;;;;;;;;;8.00;7.00;;;;;-144.24;100.00;72238.25;5042530;28;72817;-72
2024/01/26 07:17:58;;;;;;;;;9.67;5.33;;;;;-144.24;100.00;72333.03;5041875;28;45421;-72
2024/01/26 07:20:23;;;;;;;;;7.00;5.67;;;;;-144.24;100.00;72316.91;5038577;28;68486;-73
2024/01/26 07:22:49;;;;;;;;;5.33;5.00;;;;;-144.24;100.00;72218.09;5046157;28;66374;-73
2024/01/26 07:25:19;;;;;;;;;12.67;8.67;;;;;-144.24;100.00;72272.53;5041074;28;45922;-73
2024/01/26 07:27:45;;;;;;;;;10.33;7.00;;;;;-144.24;100.00;72322.94;5038533;28;45322;-72
2024/01/26 07:30:11;;;;;;;;;7.67;6.00;;;;;-144.24;100.00;71972.13;5044121;28;45491;-69
2024/01/26 07:32:36;;;;;;;;;7.33;6.33;;;;;-144.24;100.00;72004.38;5043208;28;45435;-70
2024/01/26 07:35:03;;;;;;;;;6.67;6.33;;;;;-144.24;100.00;71964.06;5041434;28;46452;-69
2024/01/26 07:37:28;;;;;;;;;11.00;7.00;;;;;-144.24;100.00;72129.38;5055837;28;46741;-69
2024/01/26 07:39:53;;;;;;;;;7.33;6.00;;;;;-144.24;100.00;72224.16;5052158;28;63390;-71
2024/01/26 07:42:19;;;;;;;;;6.00;6.00;;;;;-144.24;100.00;71841.09;5056602;28;45415;-70
2024/01/26 07:44:44;;;;;;;;;11.67;5.67;;;;;-144.24;100.00;71921.72;5051926;28;75264;-70
2024/01/26 07:47:09;;;;;;;;;7.67;6.00;;;;;-144.24;100.00;71728.19;5046222;28;69926;-69
2024/01/26 07:49:35;;;;;;;;;8.67;6.00;;;;;-144.24;100.00;71998.34;5046781;28;64017;-70
2024/01/26 07:52:00;;;;;;;;;4.33;4.33;;;;;-144.24;100.00;71663.69;5049706;28;66430;-69
2024/01/26 07:54:25;;;;;;;;;7.67;4.33;;;;;-144.24;100.00;71829.00;5048866;28;53028;-69
2024/01/26 07:56:51;;;;;;;;;5.67;4.33;;;;;-144.24;100.00;71962.06;5053112;28;45374;-69
2024/01/26 07:59:16;;;;;;;;;7.00;6.00;;;;;-144.24;100.00;72163.66;5055167;28;45818;-69
2024/01/26 08:01:41;;;;;;;;;5.00;4.67;;;;;-144.24;100.00;72107.22;5055580;28;65963;-70
2024/01/26 08:04:07;;;;;;;;;7.00;6.00;;;;;-144.24;100.00;72103.19;5050709;28;75321;-70
2024/01/26 08:06:32;;;;;;;;;5.33;4.67;;;;;-144.24;100.00;71899.56;5057731;28;68957;-72
2024/01/26 08:08:57;;;;;;;;;2.67;2.67;;;;;-144.24;100.00;71585.06;5055727;28;59303;-70
2024/01/26 08:11:23;;;;;;;;;2.33;2.33;;;;;-144.24;100.00;71300.84;5058831;28;50128;-71
2024/01/26 08:13:48;;;;;;;;;6.67;5.00;;;;;-144.24;100.00;70909.81;5056551;28;45758;-72
2024/01/26 08:16:15;;;;;;;;;3.33;3.33;;;;;-144.24;100.00;70593.38;5050710;28;53471;-70
2024/01/26 08:18:41;;;;;;;;;3.67;3.00;;;;;-144.24;100.00;69966.66;5056149;28;45500;-73
2024/01/26 08:21:07;;;;;;;;;6.00;4.00;;;;;-144.24;100.00;69849.78;5051149;28;63109;-71
2024/01/26 08:23:32;;;;;;;;;3.33;2.67;;;;;-144.24;100.00;69382.31;5056349;28;46605;-71
2024/01/26 08:25:57;;;;;;;;;4.67;3.00;;;;;-144.24;100.00;68985.44;5049737;28;45513;-70
2024/01/26 08:28:23;;;;;;;;;5.67;3.00;;;;;-144.24;100.00;68554.34;5048854;28;66487;-70
2024/01/26 08:30:48;;;;;;;;;4.67;3.67;;;;;-144.24;100.00;68262.28;5053981;28;66249;-70
2024/01/26 08:33:13;;;;;;;;;3.00;3.00;;;;;-144.24;100.00;67821.19;5055294;28;45542;-71
2024/01/26 08:35:39;;;;;;;;;3.67;3.00;;;;;-144.24;100.00;67285.50;5053655;28;69553;-72
2024/01/26 08:38:04;;;;;;;;;3.00;3.00;;;;;-144.24;100.00;67251.28;5055568;28;45525;-71
2024/01/26 08:40:29;;;;;;;;;3.00;3.00;;;;;-144.24;100.00;66753.91;5053023;28;45624;-74
2024/01/26 08:42:55;;;;;;;;;6.00;3.00;;;;;-144.24;100.00;66808.28;5056732;28;70219;-72
2024/01/26 08:45:20;;;;;;;;;3.00;3.00;;;;;-144.24;100.00;66663.31;5055086;28;59691;-71
2024/01/26 08:47:47;;;;;;;;;7.00;3.00;;;;;-144.24;100.00;66224.44;5055236;28;68447;-71
2024/01/26 08:50:12;;;;;;;;;3.00;3.00;;;;;-144.24;100.00;65954.66;5058544;28;45434;-74
2024/01/26 08:52:38;;;;;;;;;4.33;2.00;;;;;-144.24;100.00;65658.75;5052352;28;71847;-71
2024/01/26 08:55:04;;;;;;;;;4.00;2.67;;;;;-144.24;100.00;64322.44;5053034;28;45416;-71
2024/01/26 08:57:29;;;;;;;;;2.00;1.00;;;;;-144.24;100.00;64133.28;5056193;28;46145;-74
2024/01/26 08:59:54;;;;;;;;;5.67;2.00;;;;;-144.24;100.00;64262.06;5056527;28;59935;-70
2024/01/26 09:02:20;;;;;;;;;2.00;2.00;;;;;-144.24;100.00;63968.31;5058486;28;65572;-71
2024/01/26 09:04:45;;;;;;;;;4.00;3.00;;;;;-144.24;100.00;63819.41;5055242;28;55698;-71
2024/01/26 09:07:10;;;;;;;;;2.67;2.33;;;;;-144.24;100.00;63732.91;5059569;28;45411;-71
2024/01/26 09:09:36;;;;;;;;;3.67;3.00;;;;;-144.24;100.00;63521.66;5049998;28;64677;-72
2024/01/26 09:12:01;;;;;;;;;4.33;3.00;;;;;-144.24;100.00;63290.31;5046698;28;72497;-73
2024/01/26 09:14:27;;;;;;;;;6.33;2.67;;;;;-144.24;100.00;63231.97;5054660;28;48840;-71
2024/01/26 09:16:53;;;;;;;;;3.00;3.00;;;;;-144.24;100.00;62894.03;5055354;28;45588;-72
2024/01/26 09:19:18;;;;;;;;;3.33;3.00;;;;;-144.24;100.00;62556.09;5054450;28;45678;-71
2024/01/26 09:21:44;;;;;;;;;4.33;4.00;;;;;-144.24;100.00;62401.25;5053759;28;46516;-71
2024/01/26 09:24:10;;;;;;;;;3.33;2.00;;;;;-144.24;100.00;62344.94;5053001;28;45648;-71
2024/01/26 09:26:36;;;;;;;;;3.00;3.00;;;;;-144.24;100.00;62230.28;5052272;28;65857;-73
2024/01/26 09:29:01;;;;;;;;;3.00;3.00;;;;;-144.24;100.00;61864.28;5055485;28;45455;-72
2024/01/26 09:31:26;;;;;;;;;2.00;2.00;;;;;-144.24;100.00;61828.06;5052456;28;45436;-71
2024/01/26 09:33:52;;;;;;;;;3.00;3.00;;;;;-144.24;100.00;61727.53;5041841;28;55332;-72
2024/01/26 09:36:17;;;;;;;;;3.00;3.00;;;;;-144.24;100.00;61536.50;5046961;28;50266;-71
2024/01/26 09:38:43;;;;;;;;;4.00;2.00;;;;;-144.24;100.00;61582.75;5054949;28;64110;-71
2024/01/26 09:41:08;;;;;;;;;2.00;2.00;;;;;-144.24;100.00;61299.22;5056734;28;46151;-71
2024/01/26 09:43:33;;;;;;;;;1.00;1.00;;;;;-144.24;100.00;61184.63;5052148;28;46556;-73
2024/01/26 09:45:59;;;;;;;;;2.00;2.00;;;;;-144.24;100.00;61182.63;5058430;28;67642;-71
2024/01/26 09:48:24;;;;;;;;;2.00;2.00;;;;;-144.24;100.00;61612.91;5051736;28;45517;-70
2024/01/26 09:50:53;;;;;;;;;2.00;2.00;;;;;-144.24;100.00;61886.41;5054902;28;45443;-71
2024/01/26 09:53:18;;;;;;;;;1.00;1.00;;;;;-144.24;100.00;62009.06;5051183;28;45459;-72
2024/01/26 09:55:47;;;;;;;;;2.00;0.00;;;;;-144.24;100.00;62157.88;5055095;28;45466;-71
2024/01/26 09:58:12;;;;;;;;;2.00;0.00;;;;;-144.24;100.00;62258.44;5057743;28;45487;-72
2024/01/26 10:00:38;;;;;;;;;1.00;0.00;;;;;-144.24;100.00;62127.72;5054772;28;45607;-72
2024/01/26 10:03:03;;;;;;;;;0.00;0.00;;;;;-144.24;100.00;61757.69;5046239;28;66056;-72
2024/01/26 10:05:29;;;;;;;;;1.00;0.00;;;;;-144.24;100.00;60979.56;5056734;28;45514;-71
2024/01/26 10:07:54;;;;;;;;;0.00;0.00;;;;;-144.24;100.00;60223.66;5054756;28;45388;-72
2024/01/26 10:10:19;;;;;;;;;0.33;0.00;;;;;-144.24;100.00;59467.94;5049224;22;69599;-72
2024/01/26 10:12:45;;;;;;;;;0.00;0.00;;;;;-144.24;100.00;58927.34;5072899;27;55821;-70
2024/01/26 10:15:10;;;;;;;;;0.00;0.00;;;;;-144.24;100.00;58435.06;5076722;27;45477;-73
2024/01/26 10:17:37;;;;;;;;;0.00;0.00;;;;;-144.24;100.00;57741.94;5057487;28;45481;-72
2024/01/26 10:20:14;;;;;;;;;0.00;0.00;;;;;-144.24;100.00;56528.75;5074788;27;46600;-71
2024/01/26 10:22:40;;;;;;;;;0.00;0.00;;;;;-144.24;100.00;55970.50;5073909;27;45394;-71
2024/01/26 10:25:05;;;;;;;;;2.33;0.00;;;;;-144.24;100.00;55498.63;5073980;27;45649;-73
2024/01/26 10:27:32;;;;;;;;;1.00;0.00;;;;;-144.24;100.00;55647.22;5071775;27;45504;-73
2024/01/26 10:29:57;;;;;;;;;0.00;0.00;;;;;-144.24;100.00;56141.16;5076329;28;45777;-71
2024/01/26 10:32:27;;;;;;;;;1.00;1.00;;;;;-144.24;100.00;55205.53;5074298;27;45378;-72
2024/01/26 10:34:56;;;;;;;;;4.67;1.00;;;;;-144.24;100.00;54745.81;5070842;27;45338;-72
2024/01/26 10:37:26;;;;;;;;;1.00;0.00;;;;;-144.24;100.00;54514.97;5054205;28;45501;-71
2024/01/26 10:39:53;;;;;;;;;0.00;0.00;;;;;-144.24;100.00;54047.31;5074266;27;46383;-70
2024/01/26 10:42:20;;;;;;;;;0.00;0.00;;;;;-144.24;100.00;53981.06;5074559;27;45315;-72
2024/01/26 10:44:46;;;;;;;;;0.33;0.00;;;;;-144.24;100.00;53838.59;5055896;28;45486;-72
2024/01/26 10:47:13;;;;;;;;;0.33;0.00;;;;;-144.24;100.00;53928.91;5074294;27;45507;-71
2024/01/26 10:49:39;;;;;;;;;2.00;1.00;;;;;-144.24;100.00;54286.16;5055199;28;47420;-71
2024/01/26 10:52:06;;;;;;;;;1.33;0.00;;;;;-144.24;100.00;54201.84;5074721;27;45896;-72
2024/01/26 10:54:32;;;;;;;;;3.00;0.00;;;;;-144.24;100.00;54820.09;5074872;27;45466;-71
2024/01/26 10:56:58;;;;;;;;;2.33;1.00;;;;;-144.24;100.00;55584.97;5073827;27;45481;-70
2024/01/26 10:59:25;;;;;;;;;1.00;0.33;;;;;-144.24;100.00;55948.41;5055358;27;66826;-71